Benetusser, Spain
Current Conditions -  °F | °C
As of 11:30 PM on Monday 22 Dec 2014 (Local Time) from LEVC Reporting Station
Haze Haze  
Wind Chill: 45°   Ceiling: 700
Heat Index: 45°   Visibility: 3mi
Dew Point: 43°   Wind: 2mph
Humidity: 93%   Direction: NA
Pressure: 30.45"   Gusts: NA
Location:  39.42°N, 0.4°W
Report Text: LEVC 222230Z VRB02KT 5000 BR BKN007 07/06 Q1031 BECMG 3000
Loading
Personal Weather Stations






























Interactive Weather Map New forecast layout! Learn more

10-Day Weather Forecast

Advertisements
Track Severe Weather on mobile